sensor_id;sensor_type;location;lat;lon;timestamp;temperature;humidity
20125;DHT22;10223;50.862;4.360;2023-03-01T00:01:39;3.20;99.90
20125;DHT22;10223;50.862;4.360;2023-03-01T00:04:06;3.30;99.90
20125;DHT22;10223;50.862;4.360;2023-03-01T00:06:33;3.30;99.90
20125;DHT22;10223;50.862;4.360;2023-03-01T00:09:00;3.40;99.90
20125;DHT22;10223;50.862;4.360;2023-03-01T00:11:31;3.40;99.90
20125;DHT22;10223;50.862;4.360;2023-03-01T00:14:00;3.30;99.90
20125;DHT22;10223;50.862;4.360;2023-03-01T00:16:30;3.50;99.90
20125;DHT22;10223;50.862;4.360;2023-03-01T00:18:59;3.50;99.90
20125;DHT22;10223;50.862;4.360;2023-03-01T00:21:26;3.60;99.90
20125;DHT22;10223;50.862;4.360;2023-03-01T00:23:54;3.40;99.90
20125;DHT22;10223;50.862;4.360;2023-03-01T00:26:22;3.30;99.90
20125;DHT22;10223;50.862;4.360;2023-03-01T00:28:51;3.40;99.90
20125;DHT22;10223;50.862;4.360;2023-03-01T00:31:20;3.60;99.90
20125;DHT22;10223;50.862;4.360;2023-03-01T00:33:48;3.60;99.90
20125;DHT22;10223;50.862;4.360;2023-03-01T00:36:15;3.70;99.90
20125;DHT22;10223;50.862;4.360;2023-03-01T00:38:43;3.40;99.90
20125;DHT22;10223;50.862;4.360;2023-03-01T00:41:12;3.10;99.90
20125;DHT22;10223;50.862;4.360;2023-03-01T00:43:39;3.10;99.90
20125;DHT22;10223;50.862;4.360;2023-03-01T00:46:10;3.00;99.90
20125;DHT22;10223;50.862;4.360;2023-03-01T00:48:38;3.10;99.90
20125;DHT22;10223;50.862;4.360;2023-03-01T00:51:06;3.10;99.90
20125;DHT22;10223;50.862;4.360;2023-03-01T00:53:34;3.00;99.90
20125;DHT22;10223;50.862;4.360;2023-03-01T00:56:01;2.90;99.90
20125;DHT22;10223;50.862;4.360;2023-03-01T00:58:29;2.90;99.90
20125;DHT22;10223;50.862;4.360;2023-03-01T01:00:56;2.70;99.90
20125;DHT22;10223;50.862;4.360;2023-03-01T01:03:24;2.50;99.90
20125;DHT22;10223;50.862;4.360;2023-03-01T01:05:51;2.50;99.90
20125;DHT22;10223;50.862;4.360;2023-03-01T01:08:18;2.50;99.90
20125;DHT22;10223;50.862;4.360;2023-03-01T01:10:46;2.40;99.90
20125;DHT22;10223;50.862;4.360;2023-03-01T01:13:13;2.40;99.90
20125;DHT22;10223;50.862;4.360;2023-03-01T01:15:40;2.40;99.90
20125;DHT22;10223;50.862;4.360;2023-03-01T01:18:07;2.40;99.90
20125;DHT22;10223;50.862;4.360;2023-03-01T01:20:36;2.40;99.90
20125;DHT22;10223;50.862;4.360;2023-03-01T01:23:05;2.30;99.90
20125;DHT22;10223;50.862;4.360;2023-03-01T01:25:35;2.20;99.90
20125;DHT22;10223;50.862;4.360;2023-03-01T01:28:02;2.40;99.90
20125;DHT22;10223;50.862;4.360;2023-03-01T01:30:29;2.40;99.90
20125;DHT22;10223;50.862;4.360;2023-03-01T01:32:56;2.50;99.90
20125;DHT22;10223;50.862;4.360;2023-03-01T01:35:23;2.60;99.90
20125;DHT22;10223;50.862;4.360;2023-03-01T01:37:51;2.60;99.90
20125;DHT22;10223;50.862;4.360;2023-03-01T01:40:18;2.60;99.90
20125;DHT22;10223;50.862;4.360;2023-03-01T01:42:45;2.60;99.90
20125;DHT22;10223;50.862;4.360;2023-03-01T01:45:30;2.70;99.90
20125;DHT22;10223;50.862;4.360;2023-03-01T01:48:00;2.50;99.90
20125;DHT22;10223;50.862;4.360;2023-03-01T01:50:27;2.30;99.90
20125;DHT22;10223;50.862;4.360;2023-03-01T01:53:05;2.30;99.90
20125;DHT22;10223;50.862;4.360;2023-03-01T01:55:33;2.30;99.90
20125;DHT22;10223;50.862;4.360;2023-03-01T01:58:05;2.40;99.90
20125;DHT22;10223;50.862;4.360;2023-03-01T02:00:33;2.30;99.90
20125;DHT22;10223;50.862;4.360;2023-03-01T02:03:04;2.30;99.90
20125;DHT22;10223;50.862;4.360;2023-03-01T02:05:38;2.20;99.90
20125;DHT22;10223;50.862;4.360;2023-03-01T02:08:13;2.20;99.90
20125;DHT22;10223;50.862;4.360;2023-03-01T02:10:41;2.30;99.90
20125;DHT22;10223;50.862;4.360;2023-03-01T02:13:08;2.10;99.90
20125;DHT22;10223;50.862;4.360;2023-03-01T02:15:38;2.10;99.90
20125;DHT22;10223;50.862;4.360;2023-03-01T02:18:06;2.20;99.90
20125;DHT22;10223;50.862;4.360;2023-03-01T02:20:38;2.30;99.90
20125;DHT22;10223;50.862;4.360;2023-03-01T02:23:07;2.30;99.90
20125;DHT22;10223;50.862;4.360;2023-03-01T02:25:41;2.20;99.90
20125;DHT22;10223;50.862;4.360;2023-03-01T02:28:25;2.20;99.90
20125;DHT22;10223;50.862;4.360;2023-03-01T02:30:53;2.10;99.90
20125;DHT22;10223;50.862;4.360;2023-03-01T02:33:39;2.20;99.90
20125;DHT22;10223;50.862;4.360;2023-03-01T02:36:09;2.00;99.90
20125;DHT22;10223;50.862;4.360;2023-03-01T02:38:39;1.90;99.90
20125;DHT22;10223;50.862;4.360;2023-03-01T02:41:07;1.80;99.90
20125;DHT22;10223;50.862;4.360;2023-03-01T02:43:36;2.00;99.90
20125;DHT22;10223;50.862;4.360;2023-03-01T02:46:06;1.90;99.90
20125;DHT22;10223;50.862;4.360;2023-03-01T02:48:42;1.90;99.90
20125;DHT22;10223;50.862;4.360;2023-03-01T02:51:21;1.90;99.90
20125;DHT22;10223;50.862;4.360;2023-03-01T02:53:58;1.90;99.90
20125;DHT22;10223;50.862;4.360;2023-03-01T02:56:29;2.00;99.90
20125;DHT22;10223;50.862;4.360;2023-03-01T02:58:57;2.00;99.90
20125;DHT22;10223;50.862;4.360;2023-03-01T03:01:27;2.00;99.90
20125;DHT22;10223;50.862;4.360;2023-03-01T03:04:02;1.90;99.90
20125;DHT22;10223;50.862;4.360;2023-03-01T03:06:29;1.80;99.90
20125;DHT22;10223;50.862;4.360;2023-03-01T03:08:56;1.90;99.90
20125;DHT22;10223;50.862;4.360;2023-03-01T03:11:23;1.80;99.90
20125;DHT22;10223;50.862;4.360;2023-03-01T03:13:50;1.60;99.90
20125;DHT22;10223;50.862;4.360;2023-03-01T03:16:19;1.70;99.90
20125;DHT22;10223;50.862;4.360;2023-03-01T03:18:47;1.70;99.90
20125;DHT22;10223;50.862;4.360;2023-03-01T03:21:14;1.70;99.90
20125;DHT22;10223;50.862;4.360;2023-03-01T03:23:41;1.70;99.90
20125;DHT22;10223;50.862;4.360;2023-03-01T03:26:08;1.60;99.90
20125;DHT22;10223;50.862;4.360;2023-03-01T03:28:39;1.70;99.90
20125;DHT22;10223;50.862;4.360;2023-03-01T03:31:07;1.80;99.90
20125;DHT22;10223;50.862;4.360;2023-03-01T03:33:35;1.90;99.90
20125;DHT22;10223;50.862;4.360;2023-03-01T03:36:03;1.90;99.90
20125;DHT22;10223;50.862;4.360;2023-03-01T03:38:30;1.80;99.90
20125;DHT22;10223;50.862;4.360;2023-03-01T03:41:02;1.80;99.90
20125;DHT22;10223;50.862;4.360;2023-03-01T03:43:31;1.80;99.90
20125;DHT22;10223;50.862;4.360;2023-03-01T03:45:58;1.60;99.90
20125;DHT22;10223;50.862;4.360;2023-03-01T03:48:26;1.70;99.90
20125;DHT22;10223;50.862;4.360;2023-03-01T03:50:55;1.50;99.90
20125;DHT22;10223;50.862;4.360;2023-03-01T03:53:24;1.60;99.90
20125;DHT22;10223;50.862;4.360;2023-03-01T03:55:52;1.60;99.90
20125;DHT22;10223;50.862;4.360;2023-03-01T03:58:21;1.70;99.90
20125;DHT22;10223;50.862;4.360;2023-03-01T04:00:51;1.60;99.90
20125;DHT22;10223;50.862;4.360;2023-03-01T04:03:19;1.70;99.90
20125;DHT22;10223;50.862;4.360;2023-03-01T04:05:46;1.70;99.90
20125;DHT22;10223;50.862;4.360;2023-03-01T04:08:17;1.60;99.90
20125;DHT22;10223;50.862;4.360;2023-03-01T04:10:48;1.50;99.90
20125;DHT22;10223;50.862;4.360;2023-03-01T04:13:16;1.70;99.90
20125;DHT22;10223;50.862;4.360;2023-03-01T04:15:45;1.70;99.90
20125;DHT22;10223;50.862;4.360;2023-03-01T04:18:14;1.50;99.90
20125;DHT22;10223;50.862;4.360;2023-03-01T04:20:42;1.40;99.90
20125;DHT22;10223;50.862;4.360;2023-03-01T04:23:12;1.30;99.90
20125;DHT22;10223;50.862;4.360;2023-03-01T04:25:45;1.30;99.90
20125;DHT22;10223;50.862;4.360;2023-03-01T04:28:15;1.50;99.90
20125;DHT22;10223;50.862;4.360;2023-03-01T04:30:42;1.30;99.90
20125;DHT22;10223;50.862;4.360;2023-03-01T04:33:10;1.30;99.90
20125;DHT22;10223;50.862;4.360;2023-03-01T04:35:38;1.30;99.90
20125;DHT22;10223;50.862;4.360;2023-03-01T04:38:06;1.20;99.90
20125;DHT22;10223;50.862;4.360;2023-03-01T04:40:33;1.20;99.90
20125;DHT22;10223;50.862;4.360;2023-03-01T04:43:03;1.20;99.90
20125;DHT22;10223;50.862;4.360;2023-03-01T04:45:31;1.40;99.90
20125;DHT22;10223;50.862;4.360;2023-03-01T04:48:00;1.40;99.90
20125;DHT22;10223;50.862;4.360;2023-03-01T04:50:27;1.50;99.90
20125;DHT22;10223;50.862;4.360;2023-03-01T04:52:54;1.50;99.90
20125;DHT22;10223;50.862;4.360;2023-03-01T04:55:24;1.50;99.90
20125;DHT22;10223;50.862;4.360;2023-03-01T04:57:51;1.30;99.90
20125;DHT22;10223;50.862;4.360;2023-03-01T05:00:20;1.40;99.90
20125;DHT22;10223;50.862;4.360;2023-03-01T05:02:49;1.40;99.90
20125;DHT22;10223;50.862;4.360;2023-03-01T05:05:20;1.30;99.90
20125;DHT22;10223;50.862;4.360;2023-03-01T05:07:51;1.30;99.90
20125;DHT22;10223;50.862;4.360;2023-03-01T05:10:18;1.20;99.90
20125;DHT22;10223;50.862;4.360;2023-03-01T05:12:45;1.20;99.90
20125;DHT22;10223;50.862;4.360;2023-03-01T05:15:13;1.20;99.90
20125;DHT22;10223;50.862;4.360;2023-03-01T05:17:41;1.10;99.90
20125;DHT22;10223;50.862;4.360;2023-03-01T05:20:09;1.20;99.90
20125;DHT22;10223;50.862;4.360;2023-03-01T05:22:37;1.30;99.90
20125;DHT22;10223;50.862;4.360;2023-03-01T05:25:05;1.20;99.90
20125;DHT22;10223;50.862;4.360;2023-03-01T05:27:33;1.20;99.90
20125;DHT22;10223;50.862;4.360;2023-03-01T05:29:59;1.10;99.90
20125;DHT22;10223;50.862;4.360;2023-03-01T05:32:41;1.10;99.90
20125;DHT22;10223;50.862;4.360;2023-03-01T05:35:10;1.10;99.90
20125;DHT22;10223;50.862;4.360;2023-03-01T05:37:39;1.10;99.90
20125;DHT22;10223;50.862;4.360;2023-03-01T05:40:08;1.00;99.90
20125;DHT22;10223;50.862;4.360;2023-03-01T05:42:42;1.10;99.90
20125;DHT22;10223;50.862;4.360;2023-03-01T05:45:10;0.90;99.90
20125;DHT22;10223;50.862;4.360;2023-03-01T05:47:38;0.70;99.90
20125;DHT22;10223;50.862;4.360;2023-03-01T05:50:11;0.80;99.90
20125;DHT22;10223;50.862;4.360;2023-03-01T05:52:38;0.80;99.90
20125;DHT22;10223;50.862;4.360;2023-03-01T05:55:06;0.90;99.90
20125;DHT22;10223;50.862;4.360;2023-03-01T05:57:33;0.90;99.90
20125;DHT22;10223;50.862;4.360;2023-03-01T06:00:00;1.00;99.90
20125;DHT22;10223;50.862;4.360;2023-03-01T06:02:27;1.10;99.90
20125;DHT22;10223;50.862;4.360;2023-03-01T06:04:54;1.10;99.90
20125;DHT22;10223;50.862;4.360;2023-03-01T06:07:23;1.00;99.90
20125;DHT22;10223;50.862;4.360;2023-03-01T06:09:50;1.10;99.90
20125;DHT22;10223;50.862;4.360;2023-03-01T06:12:17;1.00;99.90
20125;DHT22;10223;50.862;4.360;2023-03-01T06:14:45;1.10;99.90
20125;DHT22;10223;50.862;4.360;2023-03-01T06:17:12;1.00;99.90
20125;DHT22;10223;50.862;4.360;2023-03-01T06:19:39;1.10;99.90
20125;DHT22;10223;50.862;4.360;2023-03-01T06:22:06;1.20;99.90
20125;DHT22;10223;50.862;4.360;2023-03-01T06:24:35;1.20;99.90
20125;DHT22;10223;50.862;4.360;2023-03-01T06:27:02;1.20;99.90
20125;DHT22;10223;50.862;4.360;2023-03-01T06:29:29;1.10;99.90
20125;DHT22;10223;50.862;4.360;2023-03-01T06:31:56;1.10;99.90
20125;DHT22;10223;50.862;4.360;2023-03-01T06:34:23;1.00;99.90
20125;DHT22;10223;50.862;4.360;2023-03-01T06:36:50;1.00;99.90
20125;DHT22;10223;50.862;4.360;2023-03-01T06:39:17;1.00;99.90
20125;DHT22;10223;50.862;4.360;2023-03-01T06:41:45;1.00;99.90
20125;DHT22;10223;50.862;4.360;2023-03-01T06:44:12;1.10;99.90
20125;DHT22;10223;50.862;4.360;2023-03-01T06:46:39;1.00;99.90
20125;DHT22;10223;50.862;4.360;2023-03-01T06:49:06;1.00;99.90
20125;DHT22;10223;50.862;4.360;2023-03-01T06:51:35;1.00;99.90
20125;DHT22;10223;50.862;4.360;2023-03-01T06:54:03;1.10;99.90
20125;DHT22;10223;50.862;4.360;2023-03-01T06:56:30;1.30;99.90
20125;DHT22;10223;50.862;4.360;2023-03-01T06:58:59;1.20;99.90
20125;DHT22;10223;50.862;4.360;2023-03-01T07:01:26;1.30;99.90
20125;DHT22;10223;50.862;4.360;2023-03-01T07:03:53;1.30;99.90
20125;DHT22;10223;50.862;4.360;2023-03-01T07:06:20;1.30;99.90
20125;DHT22;10223;50.862;4.360;2023-03-01T07:08:47;1.40;99.90
20125;DHT22;10223;50.862;4.360;2023-03-01T07:11:14;1.40;99.90
20125;DHT22;10223;50.862;4.360;2023-03-01T07:13:41;1.20;99.90
20125;DHT22;10223;50.862;4.360;2023-03-01T07:16:10;1.00;99.90
20125;DHT22;10223;50.862;4.360;2023-03-01T07:18:37;0.90;99.90
20125;DHT22;10223;50.862;4.360;2023-03-01T07:21:05;1.00;99.90
20125;DHT22;10223;50.862;4.360;2023-03-01T07:23:32;1.10;99.90
20125;DHT22;10223;50.862;4.360;2023-03-01T07:25:59;1.10;99.90
20125;DHT22;10223;50.862;4.360;2023-03-01T07:28:26;1.20;99.90
20125;DHT22;10223;50.862;4.360;2023-03-01T07:30:54;1.80;99.90
20125;DHT22;10223;50.862;4.360;2023-03-01T07:33:22;2.00;99.90
20125;DHT22;10223;50.862;4.360;2023-03-01T07:35:56;2.70;99.90
20125;DHT22;10223;50.862;4.360;2023-03-01T07:38:23;3.10;99.90
20125;DHT22;10223;50.862;4.360;2023-03-01T07:40:50;3.60;99.90
20125;DHT22;10223;50.862;4.360;2023-03-01T07:43:16;3.90;99.90
20125;DHT22;10223;50.862;4.360;2023-03-01T07:45:44;4.10;99.90
20125;DHT22;10223;50.862;4.360;2023-03-01T07:48:11;4.50;99.90
20125;DHT22;10223;50.862;4.360;2023-03-01T07:50:39;5.00;99.90
20125;DHT22;10223;50.862;4.360;2023-03-01T07:53:06;4.80;99.90
20125;DHT22;10223;50.862;4.360;2023-03-01T07:55:33;4.80;99.90
20125;DHT22;10223;50.862;4.360;2023-03-01T07:58:00;4.90;99.90
20125;DHT22;10223;50.862;4.360;2023-03-01T08:00:27;4.90;99.90
20125;DHT22;10223;50.862;4.360;2023-03-01T08:02:54;4.80;99.90
20125;DHT22;10223;50.862;4.360;2023-03-01T08:05:20;5.40;99.90
20125;DHT22;10223;50.862;4.360;2023-03-01T08:07:49;5.20;99.90
20125;DHT22;10223;50.862;4.360;2023-03-01T08:10:17;5.60;99.90
20125;DHT22;10223;50.862;4.360;2023-03-01T08:12:44;6.00;99.90
20125;DHT22;10223;50.862;4.360;2023-03-01T08:15:11;6.40;99.90
20125;DHT22;10223;50.862;4.360;2023-03-01T08:17:38;6.70;99.90
20125;DHT22;10223;50.862;4.360;2023-03-01T08:20:05;7.10;99.90
20125;DHT22;10223;50.862;4.360;2023-03-01T08:22:33;7.10;99.90
20125;DHT22;10223;50.862;4.360;2023-03-01T08:25:01;6.80;99.90
20125;DHT22;10223;50.862;4.360;2023-03-01T08:27:28;7.00;99.90
20125;DHT22;10223;50.862;4.360;2023-03-01T08:29:55;7.70;99.90
20125;DHT22;10223;50.862;4.360;2023-03-01T08:32:22;8.30;99.90
20125;DHT22;10223;50.862;4.360;2023-03-01T08:34:49;8.70;99.90
20125;DHT22;10223;50.862;4.360;2023-03-01T08:37:16;8.80;99.90
20125;DHT22;10223;50.862;4.360;2023-03-01T08:39:43;8.60;99.90
20125;DHT22;10223;50.862;4.360;2023-03-01T08:42:11;8.10;99.90
20125;DHT22;10223;50.862;4.360;2023-03-01T08:44:38;8.80;99.90
20125;DHT22;10223;50.862;4.360;2023-03-01T08:47:05;8.30;99.90
20125;DHT22;10223;50.862;4.360;2023-03-01T08:49:32;8.20;99.90
20125;DHT22;10223;50.862;4.360;2023-03-01T08:51:59;8.00;99.90
20125;DHT22;10223;50.862;4.360;2023-03-01T08:54:26;8.30;99.90
20125;DHT22;10223;50.862;4.360;2023-03-01T08:56:54;8.00;99.90
20125;DHT22;10223;50.862;4.360;2023-03-01T08:59:22;8.30;99.90
20125;DHT22;10223;50.862;4.360;2023-03-01T09:01:49;8.30;99.90
20125;DHT22;10223;50.862;4.360;2023-03-01T09:04:16;8.70;99.90
20125;DHT22;10223;50.862;4.360;2023-03-01T09:06:43;9.10;99.90
20125;DHT22;10223;50.862;4.360;2023-03-01T09:09:13;9.00;99.90
20125;DHT22;10223;50.862;4.360;2023-03-01T09:11:41;8.90;99.90
20125;DHT22;10223;50.862;4.360;2023-03-01T09:14:10;9.10;99.90
20125;DHT22;10223;50.862;4.360;2023-03-01T09:16:39;9.40;99.90
20125;DHT22;10223;50.862;4.360;2023-03-01T09:19:06;9.00;99.90
20125;DHT22;10223;50.862;4.360;2023-03-01T09:21:33;9.10;99.90
20125;DHT22;10223;50.862;4.360;2023-03-01T09:24:00;9.40;99.90
20125;DHT22;10223;50.862;4.360;2023-03-01T09:26:26;9.10;99.90
20125;DHT22;10223;50.862;4.360;2023-03-01T09:28:55;9.50;99.90
20125;DHT22;10223;50.862;4.360;2023-03-01T09:31:23;9.10;99.90
20125;DHT22;10223;50.862;4.360;2023-03-01T09:33:53;9.40;99.90
20125;DHT22;10223;50.862;4.360;2023-03-01T09:36:21;9.30;99.90
20125;DHT22;10223;50.862;4.360;2023-03-01T09:38:49;9.40;99.90
20125;DHT22;10223;50.862;4.360;2023-03-01T09:41:36;9.70;99.90
20125;DHT22;10223;50.862;4.360;2023-03-01T09:44:11;9.60;99.90
20125;DHT22;10223;50.862;4.360;2023-03-01T09:46:43;9.70;99.90
20125;DHT22;10223;50.862;4.360;2023-03-01T09:49:14;10.10;99.90
20125;DHT22;10223;50.862;4.360;2023-03-01T09:51:43;10.10;99.90
20125;DHT22;10223;50.862;4.360;2023-03-01T09:54:14;9.80;99.90
20125;DHT22;10223;50.862;4.360;2023-03-01T09:56:46;10.10;99.90
20125;DHT22;10223;50.862;4.360;2023-03-01T09:59:20;9.80;99.90
20125;DHT22;10223;50.862;4.360;2023-03-01T10:01:53;8.80;99.90
20125;DHT22;10223;50.862;4.360;2023-03-01T10:04:37;8.80;99.90
20125;DHT22;10223;50.862;4.360;2023-03-01T10:07:25;8.20;99.90
20125;DHT22;10223;50.862;4.360;2023-03-01T10:09:53;8.60;99.90
20125;DHT22;10223;50.862;4.360;2023-03-01T10:12:23;9.00;99.90
20125;DHT22;10223;50.862;4.360;2023-03-01T10:14:57;8.80;99.90
20125;DHT22;10223;50.862;4.360;2023-03-01T10:17:32;8.80;99.90
20125;DHT22;10223;50.862;4.360;2023-03-01T10:20:20;8.50;99.90
20125;DHT22;10223;50.862;4.360;2023-03-01T10:22:48;8.50;99.90
20125;DHT22;10223;50.862;4.360;2023-03-01T10:25:41;8.80;99.90
20125;DHT22;10223;50.862;4.360;2023-03-01T10:28:16;9.00;99.90
20125;DHT22;10223;50.862;4.360;2023-03-01T10:30:44;8.90;99.90
20125;DHT22;10223;50.862;4.360;2023-03-01T10:33:16;9.00;99.90
20125;DHT22;10223;50.862;4.360;2023-03-01T10:35:45;9.20;99.90
20125;DHT22;10223;50.862;4.360;2023-03-01T10:38:13;9.60;99.90
20125;DHT22;10223;50.862;4.360;2023-03-01T10:40:52;10.10;99.90
20125;DHT22;10223;50.862;4.360;2023-03-01T10:43:20;9.90;99.90
20125;DHT22;10223;50.862;4.360;2023-03-01T10:45:47;9.90;99.90
20125;DHT22;10223;50.862;4.360;2023-03-01T10:48:16;9.90;99.90
20125;DHT22;10223;50.862;4.360;2023-03-01T10:50:47;9.30;99.90
20125;DHT22;10223;50.862;4.360;2023-03-01T10:53:22;9.10;99.90
20125;DHT22;10223;50.862;4.360;2023-03-01T10:55:57;9.50;99.90
20125;DHT22;10223;50.862;4.360;2023-03-01T10:58:25;10.50;99.90
20125;DHT22;10223;50.862;4.360;2023-03-01T11:00:54;10.90;99.90
20125;DHT22;10223;50.862;4.360;2023-03-01T11:03:23;10.90;99.90
20125;DHT22;10223;50.862;4.360;2023-03-01T11:06:04;11.00;99.90
20125;DHT22;10223;50.862;4.360;2023-03-01T11:08:41;11.10;99.90
20125;DHT22;10223;50.862;4.360;2023-03-01T11:11:22;10.70;99.90
20125;DHT22;10223;50.862;4.360;2023-03-01T11:14:01;11.00;99.90
20125;DHT22;10223;50.862;4.360;2023-03-01T11:16:33;11.30;99.90
20125;DHT22;10223;50.862;4.360;2023-03-01T11:19:15;11.60;99.90
20125;DHT22;10223;50.862;4.360;2023-03-01T11:21:50;11.80;99.90
20125;DHT22;10223;50.862;4.360;2023-03-01T11:24:23;11.70;99.90
20125;DHT22;10223;50.862;4.360;2023-03-01T11:26:53;11.40;99.90
20125;DHT22;10223;50.862;4.360;2023-03-01T11:29:27;10.60;99.90
20125;DHT22;10223;50.862;4.360;2023-03-01T11:32:00;10.80;99.90
20125;DHT22;10223;50.862;4.360;2023-03-01T11:34:39;9.90;99.90
20125;DHT22;10223;50.862;4.360;2023-03-01T11:37:38;10.20;99.90
20125;DHT22;10223;50.862;4.360;2023-03-01T11:40:16;11.00;99.90
20125;DHT22;10223;50.862;4.360;2023-03-01T11:42:51;11.30;99.90
20125;DHT22;10223;50.862;4.360;2023-03-01T11:45:24;11.30;99.90
20125;DHT22;10223;50.862;4.360;2023-03-01T11:48:06;11.30;99.90
20125;DHT22;10223;50.862;4.360;2023-03-01T11:50:40;11.10;99.90
20125;DHT22;10223;50.862;4.360;2023-03-01T11:56:16;9.90;99.90
20125;DHT22;10223;50.862;4.360;2023-03-01T11:59:06;9.70;99.90
20125;DHT22;10223;50.862;4.360;2023-03-01T12:01:53;10.30;99.90
20125;DHT22;10223;50.862;4.360;2023-03-01T12:04:41;10.20;99.90
20125;DHT22;10223;50.862;4.360;2023-03-01T12:07:16;10.80;99.90
20125;DHT22;10223;50.862;4.360;2023-03-01T12:09:56;11.00;99.90
20125;DHT22;10223;50.862;4.360;2023-03-01T12:12:37;10.70;99.90
20125;DHT22;10223;50.862;4.360;2023-03-01T12:15:31;10.60;99.90
20125;DHT22;10223;50.862;4.360;2023-03-01T12:18:22;10.40;99.90
20125;DHT22;10223;50.862;4.360;2023-03-01T12:20:59;10.50;99.90
20125;DHT22;10223;50.862;4.360;2023-03-01T12:26:35;10.00;99.90
20125;DHT22;10223;50.862;4.360;2023-03-01T12:29:23;10.10;99.90
20125;DHT22;10223;50.862;4.360;2023-03-01T12:32:30;9.60;99.90
20125;DHT22;10223;50.862;4.360;2023-03-01T12:35:36;9.50;99.90
20125;DHT22;10223;50.862;4.360;2023-03-01T12:38:21;10.00;99.90
20125;DHT22;10223;50.862;4.360;2023-03-01T12:44:12;9.70;99.90
20125;DHT22;10223;50.862;4.360;2023-03-01T12:46:52;9.90;99.90
20125;DHT22;10223;50.862;4.360;2023-03-01T12:49:28;10.90;99.90
20125;DHT22;10223;50.862;4.360;2023-03-01T12:51:58;11.00;99.90
20125;DHT22;10223;50.862;4.360;2023-03-01T12:54:29;11.40;99.90
20125;DHT22;10223;50.862;4.360;2023-03-01T12:56:59;12.00;99.90
20125;DHT22;10223;50.862;4.360;2023-03-01T12:59:36;12.40;99.80
20125;DHT22;10223;50.862;4.360;2023-03-01T13:02:12;12.90;98.80
20125;DHT22;10223;50.862;4.360;2023-03-01T13:04:54;12.30;98.50
20125;DHT22;10223;50.862;4.360;2023-03-01T13:07:29;11.70;99.80
20125;DHT22;10223;50.862;4.360;2023-03-01T13:10:09;11.30;99.30
20125;DHT22;10223;50.862;4.360;2023-03-01T13:12:52;11.80;99.60
20125;DHT22;10223;50.862;4.360;2023-03-01T13:15:32;11.10;99.00
20125;DHT22;10223;50.862;4.360;2023-03-01T13:18:01;10.40;99.90
20125;DHT22;10223;50.862;4.360;2023-03-01T13:20:34;10.20;99.90
20125;DHT22;10223;50.862;4.360;2023-03-01T13:23:13;10.30;99.90
20125;DHT22;10223;50.862;4.360;2023-03-01T13:26:17;10.10;99.90
20125;DHT22;10223;50.862;4.360;2023-03-01T13:28:58;10.90;99.90
20125;DHT22;10223;50.862;4.360;2023-03-01T13:32:01;11.50;99.50
20125;DHT22;10223;50.862;4.360;2023-03-01T13:34:50;12.70;97.50
20125;DHT22;10223;50.862;4.360;2023-03-01T13:37:35;13.10;96.80
20125;DHT22;10223;50.862;4.360;2023-03-01T13:43:29;14.50;95.40
20125;DHT22;10223;50.862;4.360;2023-03-01T13:45:57;12.70;95.80
20125;DHT22;10223;50.862;4.360;2023-03-01T13:48:28;12.40;96.50
20125;DHT22;10223;50.862;4.360;2023-03-01T13:50:58;11.40;96.30
20125;DHT22;10223;50.862;4.360;2023-03-01T13:53:30;10.50;97.30
20125;DHT22;10223;50.862;4.360;2023-03-01T13:56:01;10.30;98.40
20125;DHT22;10223;50.862;4.360;2023-03-01T13:58:30;10.60;97.80
20125;DHT22;10223;50.862;4.360;2023-03-01T14:00:59;10.40;98.20
20125;DHT22;10223;50.862;4.360;2023-03-01T14:03:30;11.00;98.60
20125;DHT22;10223;50.862;4.360;2023-03-01T14:06:00;12.40;98.10
20125;DHT22;10223;50.862;4.360;2023-03-01T14:08:29;12.30;96.00
20125;DHT22;10223;50.862;4.360;2023-03-01T14:14:10;13.50;94.90
20125;DHT22;10223;50.862;4.360;2023-03-01T14:16:48;13.80;93.80
20125;DHT22;10223;50.862;4.360;2023-03-01T14:19:20;14.10;93.80
20125;DHT22;10223;50.862;4.360;2023-03-01T14:21:59;14.90;92.40
20125;DHT22;10223;50.862;4.360;2023-03-01T14:24:31;12.20;94.00
20125;DHT22;10223;50.862;4.360;2023-03-01T14:27:00;11.50;95.80
20125;DHT22;10223;50.862;4.360;2023-03-01T14:29:34;12.90;95.50
20125;DHT22;10223;50.862;4.360;2023-03-01T14:32:12;13.40;94.10
20125;DHT22;10223;50.862;4.360;2023-03-01T14:34:47;12.50;94.80
20125;DHT22;10223;50.862;4.360;2023-03-01T14:37:20;13.10;94.30
20125;DHT22;10223;50.862;4.360;2023-03-01T14:39:48;13.70;93.60
20125;DHT22;10223;50.862;4.360;2023-03-01T14:42:16;13.60;93.30
20125;DHT22;10223;50.862;4.360;2023-03-01T14:44:46;13.00;94.10
20125;DHT22;10223;50.862;4.360;2023-03-01T14:47:15;12.80;94.00
20125;DHT22;10223;50.862;4.360;2023-03-01T14:49:44;12.00;94.70
20125;DHT22;10223;50.862;4.360;2023-03-01T14:52:19;12.20;95.70
20125;DHT22;10223;50.862;4.360;2023-03-01T14:54:48;12.00;96.10
20125;DHT22;10223;50.862;4.360;2023-03-01T14:57:19;11.70;96.20
20125;DHT22;10223;50.862;4.360;2023-03-01T14:59:47;11.70;96.40
20125;DHT22;10223;50.862;4.360;2023-03-01T15:02:18;11.40;96.20
20125;DHT22;10223;50.862;4.360;2023-03-01T15:04:50;11.50;95.80
20125;DHT22;10223;50.862;4.360;2023-03-01T15:07:18;11.90;96.10
20125;DHT22;10223;50.862;4.360;2023-03-01T15:09:46;12.50;95.50
20125;DHT22;10223;50.862;4.360;2023-03-01T15:12:35;12.00;94.80
20125;DHT22;10223;50.862;4.360;2023-03-01T15:15:21;11.50;96.00
20125;DHT22;10223;50.862;4.360;2023-03-01T15:17:53;11.20;96.70
20125;DHT22;10223;50.862;4.360;2023-03-01T15:20:24;11.60;96.40
20125;DHT22;10223;50.862;4.360;2023-03-01T15:22:53;11.90;96.10
20125;DHT22;10223;50.862;4.360;2023-03-01T15:25:23;12.10;95.20
20125;DHT22;10223;50.862;4.360;2023-03-01T15:27:52;12.40;95.00
20125;DHT22;10223;50.862;4.360;2023-03-01T15:30:22;12.40;94.70
20125;DHT22;10223;50.862;4.360;2023-03-01T15:33:18;12.20;94.50
20125;DHT22;10223;50.862;4.360;2023-03-01T15:35:49;12.10;95.10
20125;DHT22;10223;50.862;4.360;2023-03-01T15:38:28;11.70;95.20
20125;DHT22;10223;50.862;4.360;2023-03-01T15:40:55;10.90;95.70
20125;DHT22;10223;50.862;4.360;2023-03-01T15:43:40;9.80;98.00
20125;DHT22;10223;50.862;4.360;2023-03-01T15:46:20;9.70;98.70
20125;DHT22;10223;50.862;4.360;2023-03-01T15:48:51;9.70;98.80
20125;DHT22;10223;50.862;4.360;2023-03-01T15:51:27;9.80;99.00
20125;DHT22;10223;50.862;4.360;2023-03-01T15:53:57;9.60;99.00
20125;DHT22;10223;50.862;4.360;2023-03-01T15:56:25;9.40;99.30
20125;DHT22;10223;50.862;4.360;2023-03-01T15:58:51;9.20;99.40
20125;DHT22;10223;50.862;4.360;2023-03-01T16:01:19;9.10;99.70
20125;DHT22;10223;50.862;4.360;2023-03-01T16:03:46;9.00;99.90
20125;DHT22;10223;50.862;4.360;2023-03-01T16:06:13;8.90;99.90
20125;DHT22;10223;50.862;4.360;2023-03-01T16:08:41;9.20;99.90
20125;DHT22;10223;50.862;4.360;2023-03-01T16:11:15;9.10;99.90
20125;DHT22;10223;50.862;4.360;2023-03-01T16:13:43;9.00;99.90
20125;DHT22;10223;50.862;4.360;2023-03-01T16:16:11;8.50;99.90
20125;DHT22;10223;50.862;4.360;2023-03-01T16:18:41;8.60;99.90
20125;DHT22;10223;50.862;4.360;2023-03-01T16:21:12;8.90;99.90
20125;DHT22;10223;50.862;4.360;2023-03-01T16:23:43;8.90;99.90